Time;durP1;ratioP1;P1;durP2;ratioP2;P2;SDS_P1;SDS_P2;PMS_P1;PMS_P2;Temp;Humidity;BMP_temperature;BMP_pressure;BME280_temperature;BME280_humidity;BME280_pressure;Samples;Min_cycle;Max_cycle;Signal;HPM_P1;HPM_P2
2021/06/15 00:02:06;;;;;;;41.93;22.97;;;;;;;11.62;64.31;98977.36;512961;1089;103309;-44
2021/06/15 00:12:14;;;;;;;39.17;20.73;;;;;;;11.56;64.42;98977.44;512717;1089;104265;-42
2021/06/15 00:22:22;;;;;;;32.30;20.27;;;;;;;11.49;64.90;98964.30;512886;1089;103112;-43
2021/06/15 00:32:30;;;;;;;29.27;16.83;;;;;;;11.34;64.89;98951.48;512892;1090;103514;-43
2021/06/15 00:42:38;;;;;;;26.90;17.10;;;;;;;11.20;65.30;98943.97;512703;1090;103440;-44
2021/06/15 00:52:45;;;;;;;25.27;14.93;;;;;;;11.11;65.73;98947.95;513005;1089;103102;-42
2021/06/15 01:02:53;;;;;;;24.07;14.00;;;;;;;11.01;65.56;98941.38;512911;1089;103120;-42
2021/06/15 01:23:27;;;;;;;22.10;14.10;;;;;;;10.81;65.77;98927.60;513685;1088;103117;-43
2021/06/15 01:33:32;;;;;;;29.03;15.70;;;;;;;10.67;66.21;98934.91;512774;1089;103531;-42
2021/06/15 01:43:44;;;;;;;25.20;15.35;;;;;;;10.40;66.48;98915.89;512688;1089;103540;-42
2021/06/15 02:04:04;;;;;;;25.27;15.40;;;;;;;10.42;67.12;98903.28;513162;1089;103174;-42
2021/06/15 02:24:28;;;;;;;27.87;16.17;;;;;;;10.38;67.53;98920.59;512828;1088;103141;-43
2021/06/15 02:34:36;;;;;;;27.77;17.47;;;;;;;10.34;67.84;98932.64;512750;1089;103591;-43
2021/06/15 02:44:47;;;;;;;30.80;16.37;;;;;;;10.15;67.79;98925.70;512989;1088;103130;-43
2021/06/15 02:54:58;;;;;;;27.33;14.63;;;;;;;10.27;68.19;98928.47;512941;1088;103536;-42
2021/06/15 03:05:05;;;;;;;24.37;15.17;;;;;;;10.52;67.98;98920.45;512869;1090;103483;-44
2021/06/15 03:25:27;;;;;;;25.37;14.63;;;;;;;15.42;64.95;98900.76;512747;1089;103419;-42
2021/06/15 03:35:40;;;;;;;25.40;13.67;;;;;;;17.04;62.75;98906.16;513029;1088;103115;-43
2021/06/15 03:45:52;;;;;;;16.90;13.23;;;;;;;18.08;60.42;98912.83;512738;1088;103204;-43
2021/06/15 03:56:00;;;;;;;15.43;12.50;;;;;;;19.18;59.08;98915.31;512678;1089;103105;-42
2021/06/15 04:06:10;;;;;;;19.67;13.27;;;;;;;20.07;57.72;98921.25;512696;1088;103299;-44
2021/06/15 04:16:18;;;;;;;25.33;14.20;;;;;;;20.95;55.92;98917.27;512741;1089;103457;-44
2021/06/15 04:26:26;;;;;;;19.20;13.30;;;;;;;21.61;54.25;98920.88;512921;1090;103099;-41
2021/06/15 04:36:35;;;;;;;19.90;14.30;;;;;;;22.19;52.78;98920.40;513020;1089;103499;-42
2021/06/15 04:46:44;;;;;;;17.07;12.07;;;;;;;22.63;51.17;98912.50;512984;1088;103508;-42
2021/06/15 04:56:55;;;;;;;20.73;10.10;;;;;;;23.01;50.08;98923.05;512973;1089;103102;-42
2021/06/15 05:07:03;;;;;;;15.07;7.93;;;;;;;23.59;49.20;98930.34;512741;1088;103434;-43
2021/06/15 05:17:11;;;;;;;14.37;8.30;;;;;;;23.61;47.23;98944.33;512838;1090;103485;-41
2021/06/15 05:27:19;;;;;;;16.53;8.07;;;;;;;24.04;47.10;98939.19;512945;1089;103496;-43
2021/06/15 05:37:27;;;;;;;18.45;8.65;;;;;;;23.91;45.95;98936.59;513028;1089;103528;-41
2021/06/15 05:47:36;;;;;;;15.10;7.90;;;;;;;23.89;45.93;98951.17;512868;1089;103496;-45
2021/06/15 05:57:44;;;;;;;13.67;7.13;;;;;;;24.55;46.05;98951.33;513069;1089;103169;-42
2021/06/15 06:18:17;;;;;;;19.97;7.40;;;;;;;24.64;44.21;98960.28;512792;1089;103507;-43
2021/06/15 06:28:25;;;;;;;8.93;5.33;;;;;;;26.13;43.68;98968.91;513109;1088;103057;-43
2021/06/15 06:38:33;;;;;;;12.30;5.75;;;;;;;25.74;42.12;98974.56;512795;1089;104574;-43
2021/06/15 06:48:42;;;;;;;11.67;5.37;;;;;;;25.20;41.66;98972.17;512750;1089;103508;-43
2021/06/15 06:58:50;;;;;;;11.87;5.33;;;;;;;25.06;39.54;98980.42;512979;1089;103460;-43
2021/06/15 07:08:57;;;;;;;14.25;5.95;;;;;;;24.95;39.38;98979.12;512876;1088;103138;-43
2021/06/15 07:19:05;;;;;;;8.30;5.50;;;;;;;25.60;39.39;98977.44;512881;1089;103478;-44
2021/06/15 07:29:12;;;;;;;7.87;4.70;;;;;;;26.10;38.76;98966.05;512949;1089;103845;-44
2021/06/15 07:39:20;;;;;;;9.13;4.30;;;;;;;26.65;38.12;98951.64;512825;1089;103412;-43
2021/06/15 07:59:36;;;;;;;10.27;4.07;;;;;;;26.44;38.29;98954.30;512879;1089;103105;-43
2021/06/15 08:09:44;;;;;;;7.60;4.40;;;;;;;26.37;36.36;98954.02;512960;1088;103563;-43
2021/06/15 08:19:52;;;;;;;7.83;3.80;;;;;;;26.78;37.54;98956.84;512804;1088;103113;-43
2021/06/15 08:30:00;;;;;;;6.53;4.80;;;;;;;26.75;37.45;98954.79;513227;1088;103377;-43
2021/06/15 08:40:10;;;;;;;8.50;4.90;;;;;;;26.50;37.08;98947.56;512828;1088;103096;-44
2021/06/15 08:50:21;;;;;;;7.10;4.83;;;;;;;26.20;36.45;98944.00;512884;1090;103144;-42
2021/06/15 09:00:29;;;;;;;7.80;4.33;;;;;;;26.14;36.41;98946.10;512855;1089;103511;-43
2021/06/15 09:20:41;;;;;;;10.27;4.63;;;;;;;27.08;36.56;98940.55;512853;1089;103380;-43
2021/06/15 09:30:55;;;;;;;12.73;4.13;;;;;;;26.35;36.39;98934.58;512773;1089;104256;-42
2021/06/15 09:41:03;;;;;;;10.60;4.73;;;;;;;26.93;36.40;98922.89;512854;1089;104403;-42
2021/06/15 09:51:13;;;;;;;9.30;4.30;;;;;;;26.35;35.80;98921.02;512804;1089;103128;-40
2021/06/15 10:11:34;;;;;;;5.40;4.13;;;;;;;26.93;34.71;98918.26;513046;1090;103136;-41
2021/06/15 10:21:41;;;;;;;14.20;4.13;;;;;;;27.33;35.72;98920.53;513110;1088;103172;-43
2021/06/15 10:42:10;;;;;;;5.27;3.73;;;;;;;26.71;33.52;98904.21;513013;1089;103434;-41
2021/06/15 10:52:18;;;;;;;6.90;3.55;;;;;;;25.84;33.15;98899.20;513243;1089;103419;-42
2021/06/15 11:02:28;;;;;;;6.60;3.80;;;;;;;26.67;34.40;98898.66;513114;1088;103518;-42
2021/06/15 11:12:46;;;;;;;5.37;3.17;;;;;;;26.59;34.51;98880.53;512829;1089;103114;-42
2021/06/15 11:44:55;;;;;;;6.03;3.97;;;;;;;26.75;33.44;98856.34;512964;1089;103486;-41
2021/06/15 11:55:01;;;;;;;6.50;3.87;;;;;;;26.91;34.34;98857.31;512923;1089;103106;-43
2021/06/15 12:05:13;;;;;;;8.75;3.85;;;;;;;27.29;32.58;98846.31;512715;1088;103209;-41
2021/06/15 12:15:25;;;;;;;7.07;4.47;;;;;;;26.84;33.65;98836.14;512781;1088;103051;-40
2021/06/15 12:25:32;;;;;;;9.50;4.40;;;;;;;26.99;33.61;98833.96;512828;1090;103116;-42
2021/06/15 12:35:41;;;;;;;8.17;3.90;;;;;;;26.47;33.33;98812.64;512921;1089;103058;-42
2021/06/15 12:45:48;;;;;;;5.07;4.37;;;;;;;26.71;33.56;98809.27;512888;1088;103175;-40
2021/06/15 12:55:57;;;;;;;8.30;4.43;;;;;;;26.62;32.89;98798.50;512693;1089;103400;-42
2021/06/15 13:06:10;;;;;;;5.37;3.90;;;;;;;26.30;32.84;98783.73;512832;1088;103118;-42
2021/06/15 13:26:21;;;;;;;6.67;3.33;;;;;;;26.68;33.61;98770.05;513014;1089;103451;-43
2021/06/15 13:46:38;;;;;;;6.43;3.93;;;;;;;26.77;33.52;98751.80;512633;1090;103131;-42
2021/06/15 13:56:48;;;;;;;4.17;3.17;;;;;;;26.57;33.50;98764.25;512785;1092;103460;-42
2021/06/15 14:06:56;;;;;;;6.80;3.67;;;;;;;26.43;33.51;98762.91;512643;1092;103469;-42
2021/06/15 14:17:04;;;;;;;5.53;4.23;;;;;;;26.38;33.67;98753.07;512677;1091;103106;-42
2021/06/15 14:27:12;;;;;;;5.30;3.80;;;;;;;26.20;34.53;98751.57;512885;1092;103120;-42
2021/06/15 14:37:18;;;;;;;4.95;3.60;;;;;;;26.22;34.67;98760.16;512879;1091;103215;-45
2021/06/15 14:47:25;;;;;;;6.30;4.00;;;;;;;26.18;33.70;98751.11;512842;1092;103124;-40
2021/06/15 14:57:35;;;;;;;5.50;3.47;;;;;;;26.13;34.03;98741.27;512715;1092;103055;-42
2021/06/15 15:17:51;;;;;;;4.47;3.33;;;;;;;26.34;34.04;98745.91;512894;1092;103383;-43
2021/06/15 15:27:59;;;;;;;3.23;2.93;;;;;;;26.39;33.91;98737.59;513001;1091;103134;-42
2021/06/15 15:48:13;;;;;;;7.65;3.50;;;;;;;25.73;32.82;98732.73;512879;1093;103099;-42
2021/06/15 15:58:21;;;;;;;10.07;4.47;;;;;;;25.46;33.83;98731.23;512737;1092;103147;-42
2021/06/15 16:08:27;;;;;;;15.80;5.03;;;;;;;25.35;34.79;98719.98;512681;1092;103457;-42
2021/06/15 16:18:34;;;;;;;5.57;4.37;;;;;;;25.18;34.91;98719.25;512813;1091;103568;-43
2021/06/15 16:28:42;;;;;;;4.53;3.83;;;;;;;25.00;35.33;98713.08;512814;1091;103121;-41
2021/06/15 16:38:49;;;;;;;6.30;3.10;;;;;;;24.80;35.38;98715.31;512810;1092;103131;-44
2021/06/15 16:48:57;;;;;;;3.57;2.83;;;;;;;24.72;35.56;98712.63;512941;1092;103151;-42
2021/06/15 16:59:06;;;;;;;6.83;4.30;;;;;;;24.56;34.98;98714.23;512639;1091;103138;-41
2021/06/15 17:09:14;;;;;;;6.03;2.70;;;;;;;24.65;35.23;98715.83;512835;1092;103121;-43
2021/06/15 17:19:21;;;;;;;7.90;4.00;;;;;;;24.44;35.00;98707.58;512828;1090;103148;-43
2021/06/15 17:29:29;;;;;;;8.87;3.63;;;;;;;24.23;36.02;98708.49;512818;1089;103625;-43
2021/06/15 17:39:37;;;;;;;6.90;4.60;;;;;;;24.09;35.95;98717.53;512748;1088;103116;-41
2021/06/15 17:49:45;;;;;;;6.10;4.60;;;;;;;23.89;36.40;98708.12;512659;1088;103260;-42
2021/06/15 17:59:52;;;;;;;8.10;4.67;;;;;;;23.45;37.75;98711.80;512937;1088;103129;-44
2021/06/15 18:09:58;;;;;;;;;;;;;;;22.73;39.12;98720.13;512794;1088;103108;-42
2021/06/15 18:20:06;;;;;;;9.70;4.83;;;;;;;22.16;40.17;98710.94;512823;1088;103121;-42
2021/06/15 18:30:17;;;;;;;10.30;5.70;;;;;;;21.64;41.43;98715.77;512769;1088;103108;-43
2021/06/15 18:40:27;;;;;;;13.60;6.83;;;;;;;21.01;42.26;98722.55;512687;1088;103103;-42
2021/06/15 18:50:35;;;;;;;15.20;8.27;;;;;;;20.37;43.19;98717.92;512891;1088;103215;-41
2021/06/15 19:00:42;;;;;;;13.90;6.73;;;;;;;19.76;44.04;98721.42;512911;1088;103213;-42
2021/06/15 19:10:48;;;;;;;13.50;6.83;;;;;;;19.43;45.42;98736.53;513083;1089;103517;-41
2021/06/15 19:20:58;;;;;;;11.57;7.03;;;;;;;19.01;46.19;98736.13;512766;1090;103137;-42
2021/06/15 19:31:06;;;;;;;13.80;6.75;;;;;;;18.57;46.99;98738.86;513039;1089;103134;-43
2021/06/15 19:41:15;;;;;;;18.03;10.17;;;;;;;18.32;47.76;98742.51;512826;1088;103129;-42
2021/06/15 19:51:23;;;;;;;17.97;10.17;;;;;;;17.98;48.22;98736.25;512982;1088;103155;-41
2021/06/15 20:01:30;;;;;;;20.48;12.15;;;;;;;17.89;48.99;98738.72;513074;1088;103090;-42
2021/06/15 20:11:38;;;;;;;22.90;9.73;;;;;;;17.60;49.29;98746.55;512828;1089;103489;-43
2021/06/15 20:21:44;;;;;;;22.05;11.50;;;;;;;17.49;49.73;98744.97;512905;1088;104764;-41
2021/06/15 20:31:52;;;;;;;18.50;10.27;;;;;;;17.42;50.26;98744.45;512862;1088;103064;-42
2021/06/15 20:42:01;;;;;;;21.60;11.77;;;;;;;17.33;50.64;98744.22;513042;1088;103419;-41
2021/06/15 20:52:10;;;;;;;25.60;15.77;;;;;;;17.17;51.24;98737.30;513069;1088;103126;-42
2021/06/15 21:02:18;;;;;;;28.23;16.97;;;;;;;17.22;51.80;98747.16;512692;1091;103503;-42
2021/06/15 21:12:26;;;;;;;28.50;18.45;;;;;;;17.26;52.63;98757.04;512844;1091;103102;-42
2021/06/15 21:22:34;;;;;;;30.18;18.90;;;;;;;17.39;53.29;98755.70;512964;1089;103514;-43
2021/06/15 21:32:43;;;;;;;36.60;20.10;;;;;;;17.57;53.68;98762.34;512732;1088;103374;-41
2021/06/15 21:42:51;;;;;;;28.23;18.75;;;;;;;17.57;54.20;98773.04;513150;1088;103263;-42
2021/06/15 21:52:59;;;;;;;28.18;17.90;;;;;;;17.42;54.59;98774.66;512664;1088;103079;-40
2021/06/15 22:03:11;;;;;;;29.33;18.85;;;;;;;17.20;54.97;98787.52;512713;1089;103123;-42
2021/06/15 22:13:18;;;;;;;30.70;19.20;;;;;;;17.19;55.75;98789.39;512959;1089;103122;-42
2021/06/15 22:23:26;;;;;;;37.67;18.93;;;;;;;17.19;56.10;98781.38;512923;1090;103380;-42
2021/06/15 22:33:34;;;;;;;32.68;19.65;;;;;;;17.22;56.70;98789.92;512738;1088;103502;-43
2021/06/15 22:43:42;;;;;;;32.57;20.77;;;;;;;17.34;57.06;98775.22;512652;1089;103226;-43
2021/06/15 22:53:50;;;;;;;38.15;22.45;;;;;;;17.31;57.35;98777.64;512777;1092;103457;-43
2021/06/15 23:03:57;;;;;;;43.43;25.83;;;;;;;17.23;58.09;98781.63;512743;1088;103055;-42
2021/06/15 23:14:05;;;;;;;37.37;19.87;;;;;;;17.17;58.20;98786.19;512621;1089;103218;-42
2021/06/15 23:24:14;;;;;;;30.40;18.18;;;;;;;17.12;58.88;98791.55;512770;1088;104737;-43
2021/06/15 23:34:22;;;;;;;34.85;20.35;;;;;;;17.09;59.40;98789.41;512950;1089;103503;-43
2021/06/15 23:44:30;;;;;;;35.78;23.95;;;;;;;17.07;59.60;98786.20;512828;1089;103057;-42
2021/06/15 23:54:38;;;;;;;41.60;22.80;;;;;;;17.03;59.85;98777.09;512859;1088;103131;-43
